Time;durP1;ratioP1;P1;durP2;ratioP2;P2;SDS_P1;SDS_P2;PMS_P1;PMS_P2;Temp;Humidity;BMP_temperature;BMP_pressure;BME280_temperature;BME280_humidity;BME280_pressure;Samples;Min_cycle;Max_cycle;Signal;HPM_P1;HPM_P2
2022/09/15 00:02:16;;;;;;;4.32;2.05;;;;;;;13.62;90.32;100758.94;5054259;28;20049;-77
2022/09/15 00:04:43;;;;;;;5.88;2.15;;;;;;;13.58;90.77;100761.09;5055039;28;20866;-77
2022/09/15 00:07:09;;;;;;;3.33;2.50;;;;;;;13.57;90.66;100756.94;5054778;28;20053;-76
2022/09/15 00:09:36;;;;;;;4.43;2.70;;;;;;;13.56;90.61;100758.13;5054736;28;20133;-78
2022/09/15 00:12:03;;;;;;;3.55;2.67;;;;;;;13.53;90.56;100760.97;5054561;28;20121;-78
2022/09/15 00:14:29;;;;;;;2.47;2.28;;;;;;;13.51;90.78;100748.06;5055126;28;20048;-78
2022/09/15 00:16:56;;;;;;;2.50;2.30;;;;;;;13.47;90.85;100744.84;5054137;28;20052;-77
2022/09/15 00:19:22;;;;;;;3.65;2.58;;;;;;;13.45;91.44;100747.22;5054838;28;20052;-77
2022/09/15 00:21:49;;;;;;;5.50;2.45;;;;;;;13.42;91.43;100758.09;5054728;28;20055;-77
2022/09/15 00:24:15;;;;;;;2.80;2.40;;;;;;;13.38;91.50;100752.19;5054641;28;20048;-77
2022/09/15 00:26:41;;;;;;;2.50;2.30;;;;;;;13.37;91.10;100756.78;5054494;28;20049;-77
2022/09/15 00:29:10;;;;;;;7.63;2.47;;;;;;;13.35;91.45;100756.50;5053929;28;20045;-77
2022/09/15 00:31:36;;;;;;;3.75;2.40;;;;;;;13.32;91.63;100758.16;5035823;28;20137;-77
2022/09/15 00:34:03;;;;;;;6.38;2.38;;;;;;;13.32;91.83;100758.16;5054262;28;20120;-77
2022/09/15 00:36:30;;;;;;;2.40;2.20;;;;;;;13.34;91.38;100758.44;5054671;28;20561;-77
2022/09/15 00:38:57;;;;;;;5.95;2.42;;;;;;;13.35;91.81;100753.84;5054283;28;20123;-77
2022/09/15 00:41:24;;;;;;;4.43;2.20;;;;;;;13.34;92.04;100757.69;5054339;28;20055;-77
2022/09/15 00:43:59;;;;;;;2.80;2.47;;;;;;;13.35;91.95;100757.25;5054234;28;20046;-77
2022/09/15 00:46:37;;;;;;;4.40;2.40;;;;;;;13.39;91.75;100759.00;5054095;28;20045;-77
2022/09/15 00:49:28;;;;;;;2.70;2.50;;;;;;;13.40;91.45;100761.22;5036255;28;20053;-77
2022/09/15 00:52:13;;;;;;;3.10;2.55;;;;;;;13.40;91.35;100757.81;5053866;28;20050;-77
2022/09/15 00:54:46;;;;;;;3.40;2.60;;;;;;;13.40;91.39;100758.56;5054184;28;20045;-78
2022/09/15 00:57:19;;;;;;;3.40;2.72;;;;;;;13.41;91.86;100761.97;5054295;28;20133;-77
2022/09/15 00:59:47;;;;;;;4.40;2.42;;;;;;;13.42;91.82;100763.44;5053688;28;20542;-77
2022/09/15 01:02:20;;;;;;;2.97;2.35;;;;;;;13.42;91.64;100764.19;5054051;28;20537;-76
2022/09/15 01:04:49;;;;;;;6.93;2.70;;;;;;;13.44;91.89;100761.06;5053970;28;20117;-76
2022/09/15 01:07:36;;;;;;;2.90;2.20;;;;;;;13.42;91.72;100761.50;5054092;28;20051;-76
2022/09/15 01:10:16;;;;;;;8.23;2.47;;;;;;;13.40;91.45;100758.56;5035815;28;20060;-76
2022/09/15 01:12:43;;;;;;;6.28;2.40;;;;;;;13.38;91.81;100760.19;5035387;28;20140;-77
2022/09/15 01:15:09;;;;;;;3.10;2.45;;;;;;;13.33;92.10;100756.97;5053347;28;20045;-77
2022/09/15 01:18:04;;;;;;;2.83;2.53;;;;;;;13.31;91.82;100755.94;5053542;28;20477;-77
2022/09/15 01:20:56;;;;;;;3.78;2.55;;;;;;;13.29;92.47;100758.34;5053585;28;20496;-77
2022/09/15 01:23:46;;;;;;;3.67;2.20;;;;;;;13.29;91.90;100761.00;5053910;28;20403;-77
2022/09/15 01:26:41;;;;;;;3.95;2.67;;;;;;;13.25;92.13;100768.47;5053423;28;20033;-77
2022/09/15 01:29:38;;;;;;;4.47;2.90;;;;;;;13.24;92.58;100777.66;5052790;28;20536;-76
2022/09/15 01:35:09;;;;;;;3.95;2.40;;;;;;;13.24;92.78;100766.97;5053352;28;20046;-77
2022/09/15 01:37:42;;;;;;;2.60;2.40;;;;;;;13.26;92.99;100768.00;5053433;28;20514;-77
2022/09/15 01:40:11;;;;;;;3.45;2.80;;;;;;;13.26;93.08;100769.94;5053808;28;20076;-77
2022/09/15 01:42:40;;;;;;;3.75;2.40;;;;;;;13.26;93.30;100775.28;5052381;28;20041;-76
2022/09/15 01:45:16;;;;;;;9.15;2.72;;;;;;;13.24;92.42;100772.31;5053137;28;20050;-75
2022/09/15 01:47:46;;;;;;;3.58;2.33;;;;;;;13.20;92.63;100777.84;5053195;28;20053;-76
2022/09/15 01:50:20;;;;;;;3.75;2.90;;;;;;;13.19;92.49;100781.75;5053113;28;20495;-76
2022/09/15 01:52:51;;;;;;;3.75;2.58;;;;;;;13.16;93.13;100785.31;5051316;28;20486;-76
2022/09/15 01:55:24;;;;;;;6.53;2.80;;;;;;;13.16;93.50;100779.22;5053562;28;20509;-77
2022/09/15 01:57:50;;;;;;;3.67;2.95;;;;;;;13.15;93.84;100777.72;5052684;28;20080;-76
2022/09/15 02:00:17;;;;;;;5.93;2.72;;;;;;;13.13;92.88;100780.13;5051787;28;20501;-76
2022/09/15 02:02:49;;;;;;;3.30;2.47;;;;;;;13.13;92.88;100769.41;5052967;28;20048;-76
2022/09/15 02:05:25;;;;;;;3.35;2.67;;;;;;;13.14;93.07;100778.91;5052785;28;20056;-76
2022/09/15 02:08:03;;;;;;;3.03;2.72;;;;;;;13.13;93.15;100769.41;5052722;28;20136;-76
2022/09/15 02:10:57;;;;;;;6.05;3.00;;;;;;;13.13;93.26;100769.41;5053187;28;20133;-76
2022/09/15 02:13:41;;;;;;;4.97;2.60;;;;;;;13.10;93.42;100773.00;5051383;28;20049;-76
2022/09/15 02:16:18;;;;;;;4.63;2.35;;;;;;;13.10;93.56;100768.41;5053021;28;20054;-76
2022/09/15 02:19:01;;;;;;;5.00;2.40;;;;;;;13.10;93.29;100773.00;5052902;28;20060;-76
2022/09/15 02:21:45;;;;;;;2.53;2.10;;;;;;;13.11;94.05;100769.88;5052895;28;20160;-76
2022/09/15 02:24:18;;;;;;;2.55;2.30;;;;;;;13.11;93.56;100771.81;5051791;28;20116;-76
2022/09/15 02:26:48;;;;;;;4.85;2.55;;;;;;;13.09;94.10;100774.94;5034046;28;20140;-76
2022/09/15 02:29:18;;;;;;;4.20;2.33;;;;;;;13.10;93.98;100771.06;5052268;28;20041;-76
2022/09/15 02:31:47;;;;;;;2.88;2.25;;;;;;;13.10;93.96;100775.69;5052595;28;20052;-77
2022/09/15 02:34:20;;;;;;;2.67;2.30;;;;;;;13.10;94.10;100778.34;5052570;28;20112;-76
2022/09/15 02:36:49;;;;;;;4.50;2.42;;;;;;;13.10;94.31;100784.44;5034299;28;20463;-77
2022/09/15 02:39:19;;;;;;;2.58;2.38;;;;;;;13.11;93.97;100779.81;5052441;28;20112;-76
2022/09/15 02:41:47;;;;;;;7.78;2.35;;;;;;;13.11;94.09;100785.19;5052270;28;20575;-77
2022/09/15 02:44:14;;;;;;;4.20;2.55;;;;;;;13.11;93.92;100785.19;5052456;28;20048;-77
2022/09/15 02:46:40;;;;;;;2.42;2.20;;;;;;;13.11;94.05;100783.25;5052375;28;20053;-77
2022/09/15 02:49:07;;;;;;;4.90;2.20;;;;;;;13.12;93.89;100786.66;5052240;28;20044;-77
2022/09/15 02:51:34;;;;;;;3.10;2.25;;;;;;;13.13;93.97;100786.19;5052376;28;20096;-76
2022/09/15 02:54:00;;;;;;;2.70;2.15;;;;;;;13.13;93.84;100775.50;5052150;28;20046;-77
2022/09/15 02:56:27;;;;;;;6.88;2.20;;;;;;;13.13;94.03;100774.78;5052126;28;20052;-77
2022/09/15 02:58:53;;;;;;;7.10;2.00;;;;;;;13.14;94.01;100779.66;5051534;28;20050;-76
2022/09/15 03:01:20;;;;;;;3.83;2.05;;;;;;;13.15;93.75;100781.13;5052381;28;20041;-77
2022/09/15 03:03:46;;;;;;;2.22;2.13;;;;;;;13.17;94.22;100780.72;5050655;28;20509;-77
2022/09/15 03:06:15;;;;;;;3.22;2.00;;;;;;;13.15;94.03;100775.78;5050515;28;20081;-77
2022/09/15 03:08:49;;;;;;;2.85;1.85;;;;;;;13.17;93.96;100778.78;5051823;28;20124;-77
2022/09/15 03:11:18;;;;;;;3.95;2.03;;;;;;;13.18;94.17;100782.19;5051993;28;20033;-77
2022/09/15 03:13:46;;;;;;;5.18;1.98;;;;;;;13.19;94.14;100783.66;5050716;28;20056;-76
2022/09/15 03:16:16;;;;;;;3.10;1.90;;;;;;;13.19;94.09;100778.31;5033882;28;20048;-77
2022/09/15 03:18:42;;;;;;;2.17;1.95;;;;;;;13.21;94.08;100781.25;5051982;28;20046;-77
2022/09/15 03:21:12;;;;;;;4.32;2.00;;;;;;;13.23;93.89;100776.19;5052021;28;20048;-76
2022/09/15 03:23:39;;;;;;;3.15;2.20;;;;;;;13.23;94.08;100781.53;5051460;28;20121;-77
2022/09/15 03:26:06;;;;;;;4.00;1.80;;;;;;;13.23;93.68;100782.28;5051787;28;20141;-77
2022/09/15 03:28:33;;;;;;;3.67;2.00;;;;;;;13.23;93.89;100784.94;5050435;28;20046;-77
2022/09/15 03:31:00;;;;;;;5.60;1.80;;;;;;;13.24;93.92;100789.09;5051502;28;20128;-76
2022/09/15 03:33:28;;;;;;;5.78;1.83;;;;;;;13.24;93.88;100791.78;5052013;28;20486;-76
2022/09/15 03:35:55;;;;;;;2.25;1.65;;;;;;;13.24;93.59;100799.06;5054103;28;20124;-77
2022/09/15 03:38:22;;;;;;;5.70;2.00;;;;;;;13.23;93.60;100797.56;5055181;28;20077;-76
2022/09/15 03:41:03;;;;;;;3.05;1.75;;;;;;;13.24;93.50;100791.03;5055302;28;20045;-76
2022/09/15 03:43:31;;;;;;;8.93;2.00;;;;;;;13.22;93.92;100796.09;5037661;28;20095;-77
2022/09/15 03:45:58;;;;;;;3.13;1.60;;;;;;;13.22;93.77;100801.44;5055007;28;20056;-77
2022/09/15 03:48:26;;;;;;;3.05;1.77;;;;;;;13.20;93.76;100793.13;5055455;28;20046;-77
2022/09/15 03:50:53;;;;;;;2.55;1.70;;;;;;;13.20;93.54;100799.22;5054723;28;20070;-78
2022/09/15 03:53:20;;;;;;;2.75;2.05;;;;;;;13.19;93.71;100803.13;5053473;28;20085;-78
2022/09/15 03:55:47;;;;;;;1.85;1.70;;;;;;;13.20;93.77;100803.84;5054972;28;20552;-77
2022/09/15 03:58:16;;;;;;;2.90;1.58;;;;;;;13.18;93.33;100809.66;5054938;28;20534;-79
2022/09/15 04:00:43;;;;;;;3.67;1.60;;;;;;;13.18;93.51;100806.25;5054867;28;20462;-76
2022/09/15 04:03:09;;;;;;;4.00;1.77;;;;;;;13.18;93.17;100800.91;5054995;28;20045;-76
2022/09/15 04:05:37;;;;;;;5.13;1.67;;;;;;;13.18;92.67;100808.91;5054884;28;20045;-76
2022/09/15 04:08:04;;;;;;;7.63;1.70;;;;;;;13.17;92.83;100808.19;5054376;28;20048;-76
2022/09/15 04:10:31;;;;;;;5.93;1.70;;;;;;;13.19;92.62;100805.06;5054724;28;20037;-77
2022/09/15 04:12:57;;;;;;;2.80;1.67;;;;;;;13.20;92.50;100799.22;5054604;28;20042;-77
2022/09/15 04:15:24;;;;;;;5.28;1.75;;;;;;;13.22;92.14;100793.44;5055138;28;20053;-77
2022/09/15 04:17:50;;;;;;;6.05;1.50;;;;;;;13.24;92.27;100799.78;5054903;28;20045;-77
2022/09/15 04:20:17;;;;;;;3.40;1.60;;;;;;;13.27;92.03;100796.22;5055169;28;20100;-77
2022/09/15 04:22:44;;;;;;;3.38;1.50;;;;;;;13.27;91.74;100798.88;5036590;28;20049;-77
2022/09/15 04:25:11;;;;;;;2.78;1.48;;;;;;;13.27;91.82;100798.88;5054783;28;20046;-77
2022/09/15 04:27:37;;;;;;;2.42;1.40;;;;;;;13.27;91.84;100798.88;5054738;28;20626;-77
2022/09/15 04:30:06;;;;;;;2.30;1.60;;;;;;;13.28;91.93;100802.31;5053929;28;20137;-77
2022/09/15 04:32:34;;;;;;;6.35;1.35;;;;;;;13.26;91.39;100813.44;5054445;28;20043;-78
2022/09/15 04:35:02;;;;;;;7.88;1.48;;;;;;;13.25;91.55;100803.22;5054526;28;20037;-77
2022/09/15 04:37:30;;;;;;;2.90;1.33;;;;;;;13.25;91.36;100806.63;5053892;28;20129;-77
2022/09/15 04:39:57;;;;;;;2.38;1.50;;;;;;;13.25;91.36;100800.53;5054432;28;20053;-76
2022/09/15 04:42:24;;;;;;;4.15;1.40;;;;;;;13.24;91.08;100797.13;5054594;28;20538;-76
2022/09/15 04:44:50;;;;;;;5.03;1.63;;;;;;;13.27;90.85;100804.22;5036506;28;20494;-77
2022/09/15 04:47:17;;;;;;;3.10;1.70;;;;;;;13.28;91.14;100802.31;5053780;28;20156;-77
2022/09/15 04:49:43;;;;;;;5.25;1.50;;;;;;;13.29;91.04;100798.44;5054189;28;20128;-77
2022/09/15 04:52:10;;;;;;;4.45;1.67;;;;;;;13.28;91.13;100799.63;5052173;28;20053;-77
2022/09/15 04:54:36;;;;;;;1.92;1.65;;;;;;;13.28;91.04;100788.94;5019721;28;20065;-77
2022/09/15 04:57:03;;;;;;;3.10;1.60;;;;;;;13.29;90.58;100796.50;5054136;28;20046;-77
2022/09/15 04:59:30;;;;;;;2.33;1.60;;;;;;;13.29;90.78;100790.41;5054519;28;20116;-77
2022/09/15 05:01:56;;;;;;;3.90;1.58;;;;;;;13.31;89.92;100793.38;5054060;28;20045;-77
2022/09/15 05:04:23;;;;;;;2.17;1.60;;;;;;;13.32;90.01;100794.84;5054178;28;20498;-77
2022/09/15 05:06:49;;;;;;;4.07;1.55;;;;;;;13.33;89.39;100796.31;5053456;28;20113;-76
2022/09/15 05:09:16;;;;;;;4.15;1.50;;;;;;;13.32;89.63;100792.19;5053056;28;20041;-76
2022/09/15 05:11:43;;;;;;;2.15;1.30;;;;;;;13.32;89.38;100795.59;5052566;28;20042;-76
2022/09/15 05:14:10;;;;;;;2.78;1.15;;;;;;;13.32;89.14;100800.94;5053927;28;20065;-77
2022/09/15 05:16:36;;;;;;;3.28;1.35;;;;;;;13.32;88.99;100795.59;5052408;28;20041;-76
2022/09/15 05:19:03;;;;;;;3.67;1.33;;;;;;;13.32;89.13;100803.59;5053434;28;20045;-77
2022/09/15 05:21:31;;;;;;;3.58;1.30;;;;;;;13.33;88.93;100802.41;5053313;28;20155;-78
2022/09/15 05:23:57;;;;;;;4.75;1.33;;;;;;;13.33;88.88;100805.09;5035557;28;20470;-76
2022/09/15 05:26:27;;;;;;;8.10;1.40;;;;;;;13.34;88.59;100805.81;5053416;28;20084;-76
2022/09/15 05:28:54;;;;;;;4.45;1.20;;;;;;;13.35;88.50;100801.97;5052787;28;20073;-76
2022/09/15 05:31:26;;;;;;;4.88;1.38;;;;;;;13.37;87.93;100804.19;5053616;28;20056;-76
2022/09/15 05:33:54;;;;;;;3.90;1.35;;;;;;;13.36;88.09;100803.44;5053419;28;20080;-77
2022/09/15 05:36:23;;;;;;;5.38;1.20;;;;;;;13.37;87.33;100802.25;5053702;28;20052;-77
2022/09/15 05:38:52;;;;;;;3.33;1.00;;;;;;;13.38;87.31;100801.03;5053822;28;20289;-77
2022/09/15 05:41:19;;;;;;;5.15;1.08;;;;;;;13.39;86.78;100805.19;5035421;28;20077;-76
2022/09/15 05:43:47;;;;;;;3.47;1.05;;;;;;;13.39;86.34;100802.53;5051562;28;20159;-77
2022/09/15 05:46:15;;;;;;;3.00;1.48;;;;;;;13.40;85.53;100806.69;5035322;28;20145;-77
2022/09/15 05:48:42;;;;;;;5.47;1.13;;;;;;;13.43;85.36;100811.13;5052100;28;20469;-77
2022/09/15 05:51:10;;;;;;;4.30;1.05;;;;;;;13.44;84.93;100817.94;5053669;28;20042;-76
2022/09/15 05:53:37;;;;;;;4.32;0.95;;;;;;;13.46;85.26;100817.50;5053557;28;20518;-76
2022/09/15 05:56:14;;;;;;;3.35;1.17;;;;;;;13.51;86.59;100817.59;5053898;28;20521;-75
2022/09/15 05:58:44;;;;;;;5.65;1.10;;;;;;;13.55;85.01;100820.09;5052160;28;20049;-74
2022/09/15 06:01:19;;;;;;;2.05;1.05;;;;;;;13.61;85.45;100820.91;5053916;28;20076;-73
2022/09/15 06:03:47;;;;;;;2.35;1.08;;;;;;;13.61;84.85;100808.28;5053133;28;20473;-73
2022/09/15 06:06:14;;;;;;;4.53;1.48;;;;;;;13.64;84.67;100807.38;5053466;28;20529;-74
2022/09/15 06:08:47;;;;;;;8.68;1.27;;;;;;;13.67;84.24;100813.75;5035126;28;20084;-74
2022/09/15 06:11:19;;;;;;;2.72;1.08;;;;;;;13.71;84.15;100819.66;5053206;28;20563;-74
2022/09/15 06:13:47;;;;;;;6.70;1.27;;;;;;;13.74;83.87;100818.75;5053078;28;20506;-76
2022/09/15 06:16:17;;;;;;;4.28;1.45;;;;;;;13.79;83.53;100814.69;5053550;28;20045;-76
2022/09/15 06:18:46;;;;;;;2.85;1.00;;;;;;;13.85;83.28;100831.59;5052953;28;20045;-75
2022/09/15 06:21:18;;;;;;;3.13;1.00;;;;;;;13.91;83.03;100825.16;5052123;28;20042;-76
2022/09/15 06:23:45;;;;;;;2.17;1.00;;;;;;;13.95;82.08;100833.00;5053394;28;20613;-76
2022/09/15 06:26:17;;;;;;;2.85;1.00;;;;;;;13.98;82.52;100830.13;5053604;28;20053;-77
2022/09/15 06:28:55;;;;;;;2.55;1.20;;;;;;;14.08;82.26;100833.44;5052814;28;20045;-76
2022/09/15 06:31:23;;;;;;;4.95;1.05;;;;;;;14.27;81.75;100837.44;5041944;28;20051;-76
2022/09/15 06:33:52;;;;;;;4.90;1.48;;;;;;;14.80;79.10;100838.47;5072556;28;20050;-78
2022/09/15 06:36:20;;;;;;;2.83;1.13;;;;;;;14.63;79.09;100835.56;5073130;28;20421;-77
2022/09/15 06:38:47;;;;;;;4.70;1.13;;;;;;;14.46;79.48;100848.69;5064782;28;20041;-78
2022/09/15 06:41:14;;;;;;;3.33;0.98;;;;;;;14.39;80.18;100845.66;5053226;28;20051;-78
2022/09/15 06:43:42;;;;;;;4.07;1.33;;;;;;;14.32;80.77;100844.09;5034497;28;20140;-77
2022/09/15 06:46:14;;;;;;;2.03;0.93;;;;;;;14.31;81.04;100847.97;5051975;28;20116;-78
2022/09/15 06:48:42;;;;;;;3.67;0.90;;;;;;;14.32;80.99;100855.53;5052051;28;20474;-76
2022/09/15 06:51:15;;;;;;;4.05;1.08;;;;;;;14.38;80.63;100860.97;5052737;28;20076;-76
2022/09/15 06:53:42;;;;;;;4.30;1.02;;;;;;;14.45;80.75;100865.22;5052313;28;20049;-75
2022/09/15 06:56:15;;;;;;;4.43;1.10;;;;;;;14.56;80.34;100860.81;5051666;28;20216;-77
2022/09/15 06:58:42;;;;;;;3.03;1.02;;;;;;;14.67;80.29;100863.66;5052781;28;20073;-76
2022/09/15 07:01:24;;;;;;;3.97;1.30;;;;;;;14.80;80.61;100865.28;5051051;28;20510;-76
2022/09/15 07:03:51;;;;;;;;;;;;;;;14.92;80.30;100873.03;5051328;28;20639;-76
2022/09/15 07:06:18;;;;;;;5.82;1.10;;;;;;;14.96;79.14;100873.56;5052873;28;19925;-76
2022/09/15 07:08:45;;;;;;;4.82;1.00;;;;;;;14.99;79.25;100877.25;5052427;28;20053;-76
2022/09/15 07:11:12;;;;;;;2.70;1.10;;;;;;;15.01;77.69;100880.97;5052535;28;20104;-76
2022/09/15 07:13:39;;;;;;;2.35;1.10;;;;;;;15.01;78.43;100894.38;5050135;28;20553;-75
2022/09/15 07:16:08;;;;;;;2.35;1.13;;;;;;;15.02;79.23;100897.78;5051021;28;20045;-76
2022/09/15 07:18:35;;;;;;;2.03;1.10;;;;;;;14.99;78.57;100893.34;5034085;28;20808;-75
2022/09/15 07:21:12;;;;;;;2.50;1.00;;;;;;;14.94;77.46;100897.44;5051661;28;20081;-76
2022/09/15 07:23:39;;;;;;;4.35;1.20;;;;;;;14.92;77.97;100897.16;5052012;28;20153;-76
2022/09/15 07:26:37;;;;;;;9.93;1.33;;;;;;;14.92;77.78;100907.88;5052335;28;20037;-75
2022/09/15 07:29:05;;;;;;;4.30;1.23;;;;;;;14.92;77.96;100902.50;5030786;28;20600;-75
2022/09/15 07:31:35;;;;;;;5.82;1.50;;;;;;;14.94;78.23;100905.47;5051460;28;20045;-75
2022/09/15 07:34:03;;;;;;;4.55;1.20;;;;;;;14.98;78.65;100902.59;5034246;28;20097;-77
2022/09/15 07:36:30;;;;;;;11.60;1.10;;;;;;;15.03;78.98;100907.31;5052326;28;20115;-75
2022/09/15 07:39:02;;;;;;;5.38;1.92;;;;;;;15.11;79.26;100911.09;5052430;28;20077;-76
2022/09/15 07:41:32;;;;;;;5.07;1.20;;;;;;;15.15;77.88;100910.88;5033988;28;20049;-76
2022/09/15 07:43:59;;;;;;;3.05;1.30;;;;;;;15.22;77.91;100915.84;5033864;28;20053;-75
2022/09/15 07:46:30;;;;;;;7.15;1.13;;;;;;;15.32;76.87;100915.25;5051818;28;20044;-75
2022/09/15 07:48:58;;;;;;;3.03;1.08;;;;;;;15.41;77.00;100911.72;5052608;28;20486;-76
2022/09/15 07:51:25;;;;;;;5.65;1.25;;;;;;;15.50;76.21;100910.84;5050547;28;20099;-76
2022/09/15 07:53:52;;;;;;;3.75;0.95;;;;;;;15.55;75.52;100910.94;5051957;28;20069;-77
2022/09/15 07:56:20;;;;;;;8.25;1.00;;;;;;;15.59;74.69;100913.44;5054754;28;20045;-76
2022/09/15 07:58:47;;;;;;;5.95;0.90;;;;;;;15.61;74.92;100911.75;5053998;28;20087;-76
2022/09/15 08:01:15;;;;;;;3.92;1.10;;;;;;;15.71;73.85;100925.03;5071405;28;20047;-76
2022/09/15 08:03:45;;;;;;;3.88;0.80;;;;;;;15.80;74.19;100927.59;5071616;28;20487;-75
2022/09/15 08:06:12;;;;;;;4.45;1.58;;;;;;;15.86;72.75;100931.06;5071807;28;20072;-76
2022/09/15 08:08:39;;;;;;;4.53;1.02;;;;;;;15.89;73.25;100927.44;5071584;28;20124;-76
2022/09/15 08:11:18;;;;;;;4.53;0.93;;;;;;;15.95;72.57;100936.31;5071948;28;20041;-76
2022/09/15 08:13:46;;;;;;;3.40;0.85;;;;;;;15.98;72.06;100938.78;5053010;28;20140;-76
2022/09/15 08:16:15;;;;;;;2.38;0.70;;;;;;;16.03;72.06;100940.03;5071367;28;20047;-77
2022/09/15 08:18:46;;;;;;;3.75;0.90;;;;;;;16.08;72.14;100942.03;5071460;28;20049;-76
2022/09/15 08:21:15;;;;;;;4.82;1.15;;;;;;;16.19;71.81;100936.81;5072023;28;20049;-77
2022/09/15 08:23:42;;;;;;;3.05;0.80;;;;;;;16.27;71.12;100943.22;5074929;28;20049;-76
2022/09/15 08:26:10;;;;;;;2.30;0.88;;;;;;;16.34;70.58;100953.56;5075040;28;20530;-76
2022/09/15 08:28:40;;;;;;;2.78;0.60;;;;;;;16.34;70.10;100950.88;5055447;28;20080;-76
2022/09/15 08:31:09;;;;;;;3.45;1.20;;;;;;;16.43;69.91;100957.28;5074367;28;20136;-76
2022/09/15 08:33:35;;;;;;;5.53;1.27;;;;;;;16.49;70.05;100961.50;5074579;28;20049;-76
2022/09/15 08:36:12;;;;;;;4.68;1.00;;;;;;;16.57;69.00;100969.88;5073273;28;20576;-75
2022/09/15 08:38:42;;;;;;;5.45;1.02;;;;;;;16.64;68.89;100966.81;5074508;28;20048;-75
2022/09/15 08:41:23;;;;;;;7.10;0.90;;;;;;;16.79;69.83;100974.75;5074387;28;20098;-74
2022/09/15 08:44:35;;;;;;;3.67;1.00;;;;;;;16.81;68.15;100983.06;5074290;28;20072;-74
2022/09/15 08:47:19;;;;;;;3.47;0.95;;;;;;;16.75;66.88;100977.66;5075076;28;20635;-74
2022/09/15 08:50:06;;;;;;;3.35;1.00;;;;;;;16.81;67.42;100981.09;5074645;28;20048;-75
2022/09/15 08:52:51;;;;;;;4.93;1.02;;;;;;;16.74;66.03;100988.88;5074652;28;20051;-77
2022/09/15 08:55:32;;;;;;;3.92;1.05;;;;;;;16.65;66.60;100989.78;5056521;28;20136;-76
2022/09/15 08:57:58;;;;;;;3.45;1.13;;;;;;;16.64;66.79;100985.63;5073942;28;20048;-76
2022/09/15 09:00:25;;;;;;;3.47;1.10;;;;;;;16.65;66.77;100990.53;5074802;28;20096;-79
2022/09/15 09:03:17;;;;;;;5.72;1.50;;;;;;;16.67;67.71;100998.09;5074741;28;20545;-80
2022/09/15 09:06:02;;;;;;;3.83;0.90;;;;;;;16.68;67.52;100999.59;5074547;28;20045;-77
2022/09/15 09:08:29;;;;;;;2.75;0.77;;;;;;;16.66;67.33;100993.94;5074435;28;20462;-78
2022/09/15 09:11:11;;;;;;;2.70;1.10;;;;;;;16.71;68.81;100993.25;5074615;28;20087;-77
2022/09/15 09:13:46;;;;;;;6.05;1.05;;;;;;;16.72;68.84;100996.69;5055185;28;20045;-78
2022/09/15 09:16:52;;;;;;;3.03;1.00;;;;;;;16.70;68.76;100994.47;5073466;28;20041;-77
2022/09/15 09:20:02;;;;;;;6.40;1.00;;;;;;;16.79;69.00;100990.88;5074359;28;20083;-77
2022/09/15 09:22:34;;;;;;;2.22;0.80;;;;;;;16.77;68.48;100998.69;5056607;28;20041;-76
2022/09/15 09:25:02;;;;;;;2.83;0.93;;;;;;;16.77;68.64;100996.00;5074015;28;20049;-77
2022/09/15 09:27:49;;;;;;;6.05;1.23;;;;;;;16.80;69.86;100993.06;5055185;28;20103;-75
2022/09/15 09:30:19;;;;;;;4.63;1.08;;;;;;;16.79;68.30;100988.19;5073695;28;20063;-74
2022/09/15 09:32:48;;;;;;;6.10;1.30;;;;;;;16.80;69.77;100998.44;5073729;28;20054;-74
2022/09/15 09:35:27;;;;;;;4.47;1.10;;;;;;;16.70;69.49;100994.47;5074223;28;20041;-75
2022/09/15 09:37:54;;;;;;;3.33;1.05;;;;;;;16.65;69.71;100993.19;5054813;28;20045;-75
2022/09/15 09:40:21;;;;;;;3.40;0.80;;;;;;;16.51;69.74;100991.31;5073833;28;20049;-75
2022/09/15 09:42:48;;;;;;;1.85;0.90;;;;;;;16.52;68.73;100986.69;5072746;28;20072;-75
2022/09/15 09:45:17;;;;;;;5.40;1.30;;;;;;;16.59;68.78;100988.97;5072569;28;20103;-75
2022/09/15 09:47:45;;;;;;;4.72;1.08;;;;;;;16.67;68.18;100993.47;5073371;28;20049;-75
2022/09/15 09:50:37;;;;;;;3.03;1.00;;;;;;;16.76;68.42;100997.94;5072302;28;20076;-75
2022/09/15 09:53:32;;;;;;;2.30;1.02;;;;;;;17.03;68.93;101002.06;5054838;28;20579;-74
2022/09/15 09:56:10;;;;;;;5.50;0.98;;;;;;;17.20;67.80;101000.22;5047747;28;20163;-74
2022/09/15 09:58:37;;;;;;;3.22;1.00;;;;;;;17.36;67.01;100998.88;5072217;28;20045;-74
2022/09/15 10:01:13;;;;;;;5.60;1.20;;;;;;;17.46;65.64;101004.81;5073722;28;20476;-75
2022/09/15 10:03:42;;;;;;;4.78;1.30;;;;;;;17.46;65.30;101002.84;5073659;28;20052;-74
2022/09/15 10:06:14;;;;;;;2.78;1.23;;;;;;;17.69;66.05;101006.41;5073558;28;20045;-75
2022/09/15 10:09:02;;;;;;;3.97;1.00;;;;;;;17.90;66.15;101004.31;5071541;28;20525;-76
2022/09/15 10:11:44;;;;;;;3.53;1.33;;;;;;;17.95;64.78;101003.63;5071395;28;20432;-76
2022/09/15 10:14:32;;;;;;;7.03;1.15;;;;;;;17.87;64.16;100999.91;5055711;28;20037;-76
2022/09/15 10:17:21;;;;;;;4.32;1.10;;;;;;;17.69;64.50;101000.28;5054783;28;20515;-77
2022/09/15 10:19:53;;;;;;;4.72;0.82;;;;;;;17.58;64.29;101009.78;5073148;28;20649;-76
2022/09/15 10:22:29;;;;;;;9.40;1.30;;;;;;;17.63;64.89;101000.22;5072371;28;20084;-76
2022/09/15 10:24:57;;;;;;;8.15;1.27;;;;;;;17.67;64.17;100987.31;5072925;28;20041;-76
2022/09/15 10:27:32;;;;;;;3.22;1.33;;;;;;;17.79;64.66;100985.41;5072782;28;20045;-77
2022/09/15 10:30:11;;;;;;;4.40;1.00;;;;;;;17.92;64.13;100981.06;5054310;28;20143;-76
2022/09/15 10:32:39;;;;;;;2.05;1.00;;;;;;;18.04;63.46;100976.44;5072882;28;20107;-76
2022/09/15 10:35:14;;;;;;;5.43;1.10;;;;;;;18.24;63.89;100978.22;5038462;28;20049;-76
2022/09/15 10:37:57;;;;;;;2.90;1.10;;;;;;;18.44;63.35;100969.91;5072672;28;20049;-76
2022/09/15 10:40:27;;;;;;;2.97;1.00;;;;;;;18.49;61.89;100973.84;5054686;28;20079;-76
2022/09/15 10:43:07;;;;;;;5.15;1.20;;;;;;;18.58;62.39;100966.25;5072738;28;20548;-76
2022/09/15 10:45:49;;;;;;;6.90;1.30;;;;;;;18.71;60.97;100957.72;5072192;28;20526;-76
2022/09/15 10:48:22;;;;;;;10.68;1.30;;;;;;;18.74;59.75;100954.06;5038124;28;20049;-77
2022/09/15 10:50:57;;;;;;;3.17;0.93;;;;;;;18.78;59.44;100959.94;5072740;28;20124;-79
2022/09/15 10:53:37;;;;;;;5.53;1.27;;;;;;;18.82;60.24;100959.66;5072635;28;20095;-76
2022/09/15 10:56:30;;;;;;;4.22;1.08;;;;;;;18.83;59.27;100961.13;5072919;28;20075;-76
2022/09/15 10:59:02;;;;;;;2.75;1.45;;;;;;;18.94;59.38;100961.13;5054589;28;20051;-77
2022/09/15 11:01:29;;;;;;;5.60;1.20;;;;;;;18.96;57.51;100956.00;5072908;28;20265;-75
2022/09/15 11:04:34;;;;;;;3.22;1.08;;;;;;;18.95;58.11;100957.94;5071495;28;20072;-76
2022/09/15 11:07:12;;;;;;;4.10;1.17;;;;;;;18.95;57.53;100970.69;5047986;28;20088;-78
2022/09/15 11:09:56;;;;;;;4.00;1.15;;;;;;;19.02;57.52;100958.69;5071752;28;20047;-77
2022/09/15 11:12:42;;;;;;;6.97;1.10;;;;;;;19.03;58.46;100968.25;5054292;28;20056;-79
2022/09/15 11:15:26;;;;;;;81.22;59.97;;;;;;;19.09;56.95;100960.88;5072448;28;20059;-76
2022/09/15 11:18:22;;;;;;;6.93;4.28;;;;;;;19.11;56.54;100961.13;5072129;28;20116;-77
2022/09/15 11:21:13;;;;;;;9.68;1.85;;;;;;;18.98;55.39;100962.38;5054459;28;20079;-78
2022/09/15 11:24:09;;;;;;;1.77;1.33;;;;;;;18.99;55.93;100957.69;5053688;28;20136;-79
2022/09/15 11:26:51;;;;;;;7.53;1.25;;;;;;;19.07;54.62;100947.16;5054113;28;20183;-76
2022/09/15 11:29:21;;;;;;;2.78;1.00;;;;;;;19.06;52.66;100946.41;5072032;28;20955;-76
2022/09/15 11:31:53;;;;;;;27.63;2.25;;;;;;;19.16;53.77;100955.00;5072959;28;20112;-76
2022/09/15 11:34:34;;;;;;;2.35;1.20;;;;;;;19.20;53.97;100958.16;5072800;28;20045;-77
2022/09/15 11:37:11;;;;;;;2.22;1.02;;;;;;;19.24;54.66;100948.56;5071466;28;20076;-76
2022/09/15 11:39:47;;;;;;;4.82;0.98;;;;;;;19.09;53.99;100963.59;5053534;28;20045;-77
2022/09/15 11:42:23;;;;;;;1.75;1.00;;;;;;;18.92;53.29;100964.31;5072243;28;20041;-75
2022/09/15 11:44:50;;;;;;;6.30;0.88;;;;;;;18.65;52.35;100962.38;5071186;28;20045;-76
2022/09/15 11:47:30;;;;;;;3.15;0.90;;;;;;;18.59;52.99;100969.69;5072360;28;20049;-76
2022/09/15 11:50:10;;;;;;;5.23;1.00;;;;;;;18.55;52.84;100969.94;5053905;28;20456;-76
2022/09/15 11:53:09;;;;;;;3.55;1.00;;;;;;;18.58;52.77;100974.34;5071528;28;20051;-77